Cameron, Missouri
Current Conditions -  °F | °C
As of 5:15 AM on Friday 31 Oct 2014 (Local Time) from KGPH Reporting Station
Scattered Clouds Scattered Clouds  
Wind Chill: 32°   Ceiling: Unl
Heat Index: 41°   Visibility: 10mi
Dew Point: 32°   Wind: 20mph
Humidity: 70%   Direction: 350°N
Pressure: 30.35"   Gusts: 31mph
Location:  39.74°N, 94.24°W
Report Text: KGPH 311015Z AUTO 35017G27KT 10SM SCT026 SCT031 05/00 A3035 RMK AO2
Loading
Personal Weather Stations






























Interactive Weather Map
Tropical Storm Tracking
New forecast layout! Learn more

10-Day Weather Forecast

Advertisements
Track Severe Weather on mobile